sensor_id;sensor_type;location;lat;lon;timestamp;P1;durP1;ratioP1;P2;durP2;ratioP2
71427;SDS011;59246;59.102;37.928;2022-08-01T00:01:23;1.40;;;1.05;;
71427;SDS011;59246;59.102;37.928;2022-08-01T00:03:48;4.97;;;1.10;;
71427;SDS011;59246;59.102;37.928;2022-08-01T00:06:14;1.77;;;1.10;;
71427;SDS011;59246;59.102;37.928;2022-08-01T00:08:40;1.33;;;1.10;;
71427;SDS011;59246;59.102;37.928;2022-08-01T00:11:05;1.67;;;1.30;;
71427;SDS011;59246;59.102;37.928;2022-08-01T00:13:31;1.42;;;1.10;;
71427;SDS011;59246;59.102;37.928;2022-08-01T00:15:57;2.25;;;1.13;;
71427;SDS011;59246;59.102;37.928;2022-08-01T00:18:23;3.15;;;1.50;;
71427;SDS011;59246;59.102;37.928;2022-08-01T00:20:48;1.75;;;1.30;;
71427;SDS011;59246;59.102;37.928;2022-08-01T00:23:14;5.60;;;1.70;;
71427;SDS011;59246;59.102;37.928;2022-08-01T00:25:40;6.32;;;2.00;;
71427;SDS011;59246;59.102;37.928;2022-08-01T00:28:06;4.03;;;1.80;;
71427;SDS011;59246;59.102;37.928;2022-08-01T00:30:34;3.03;;;1.70;;
71427;SDS011;59246;59.102;37.928;2022-08-01T00:33:00;4.65;;;1.55;;
71427;SDS011;59246;59.102;37.928;2022-08-01T00:35:27;3.47;;;1.40;;
71427;SDS011;59246;59.102;37.928;2022-08-01T00:37:52;4.00;;;1.27;;
71427;SDS011;59246;59.102;37.928;2022-08-01T00:40:18;4.80;;;1.50;;
71427;SDS011;59246;59.102;37.928;2022-08-01T00:42:44;4.53;;;1.30;;
71427;SDS011;59246;59.102;37.928;2022-08-01T00:45:10;8.50;;;1.45;;
71427;SDS011;59246;59.102;37.928;2022-08-01T00:47:37;3.15;;;1.25;;
71427;SDS011;59246;59.102;37.928;2022-08-01T00:50:03;2.92;;;1.40;;
71427;SDS011;59246;59.102;37.928;2022-08-01T00:52:30;2.55;;;1.50;;
71427;SDS011;59246;59.102;37.928;2022-08-01T00:54:56;3.58;;;1.55;;
71427;SDS011;59246;59.102;37.928;2022-08-01T00:57:22;6.60;;;1.75;;
71427;SDS011;59246;59.102;37.928;2022-08-01T00:59:48;7.03;;;1.70;;
71427;SDS011;59246;59.102;37.928;2022-08-01T01:02:14;5.07;;;1.60;;
71427;SDS011;59246;59.102;37.928;2022-08-01T01:04:40;4.07;;;1.70;;
71427;SDS011;59246;59.102;37.928;2022-08-01T01:07:06;5.05;;;2.00;;
71427;SDS011;59246;59.102;37.928;2022-08-01T01:15:34;6.22;;;1.40;;
71427;SDS011;59246;59.102;37.928;2022-08-01T01:24:13;5.30;;;3.45;;
71427;SDS011;59246;59.102;37.928;2022-08-01T01:34:29;9.70;;;3.17;;
71427;SDS011;59246;59.102;37.928;2022-08-01T01:36:59;6.90;;;2.47;;
71427;SDS011;59246;59.102;37.928;2022-08-01T01:39:28;8.38;;;3.80;;
71427;SDS011;59246;59.102;37.928;2022-08-01T01:41:55;4.78;;;2.95;;
71427;SDS011;59246;59.102;37.928;2022-08-01T01:44:23;11.93;;;4.45;;
71427;SDS011;59246;59.102;37.928;2022-08-01T01:46:50;10.57;;;3.53;;
71427;SDS011;59246;59.102;37.928;2022-08-01T01:49:17;8.18;;;4.13;;
71427;SDS011;59246;59.102;37.928;2022-08-01T01:51:47;6.72;;;4.00;;
71427;SDS011;59246;59.102;37.928;2022-08-01T01:54:15;8.35;;;4.03;;
71427;SDS011;59246;59.102;37.928;2022-08-01T01:56:41;6.60;;;3.50;;
71427;SDS011;59246;59.102;37.928;2022-08-01T01:59:19;15.35;;;4.53;;
71427;SDS011;59246;59.102;37.928;2022-08-01T02:01:49;11.18;;;4.47;;
71427;SDS011;59246;59.102;37.928;2022-08-01T02:04:18;8.80;;;3.45;;
71427;SDS011;59246;59.102;37.928;2022-08-01T02:06:46;11.43;;;3.38;;
71427;SDS011;59246;59.102;37.928;2022-08-01T02:09:19;9.93;;;3.28;;
71427;SDS011;59246;59.102;37.928;2022-08-01T02:11:46;9.60;;;2.97;;
71427;SDS011;59246;59.102;37.928;2022-08-01T02:14:14;10.38;;;3.20;;
71427;SDS011;59246;59.102;37.928;2022-08-01T02:16:42;10.48;;;2.83;;
71427;SDS011;59246;59.102;37.928;2022-08-01T02:19:11;5.07;;;2.85;;
71427;SDS011;59246;59.102;37.928;2022-08-01T02:21:44;8.27;;;3.40;;
71427;SDS011;59246;59.102;37.928;2022-08-01T02:24:19;9.52;;;3.30;;
71427;SDS011;59246;59.102;37.928;2022-08-01T02:26:52;9.18;;;3.58;;
71427;SDS011;59246;59.102;37.928;2022-08-01T02:29:23;11.13;;;3.92;;
71427;SDS011;59246;59.102;37.928;2022-08-01T02:32:03;6.97;;;3.55;;
71427;SDS011;59246;59.102;37.928;2022-08-01T02:34:31;8.10;;;3.28;;
71427;SDS011;59246;59.102;37.928;2022-08-01T02:37:00;7.75;;;2.90;;
71427;SDS011;59246;59.102;37.928;2022-08-01T02:39:28;4.15;;;2.75;;
71427;SDS011;59246;59.102;37.928;2022-08-01T02:41:57;8.00;;;2.67;;
71427;SDS011;59246;59.102;37.928;2022-08-01T02:44:30;5.68;;;2.80;;
71427;SDS011;59246;59.102;37.928;2022-08-01T02:46:59;7.18;;;2.58;;
71427;SDS011;59246;59.102;37.928;2022-08-01T02:49:33;4.80;;;2.72;;
71427;SDS011;59246;59.102;37.928;2022-08-01T02:52:12;4.85;;;2.60;;
71427;SDS011;59246;59.102;37.928;2022-08-01T02:54:41;2.45;;;2.15;;
71427;SDS011;59246;59.102;37.928;2022-08-01T02:57:09;4.88;;;1.98;;
71427;SDS011;59246;59.102;37.928;2022-08-01T02:59:36;2.63;;;2.20;;
71427;SDS011;59246;59.102;37.928;2022-08-01T03:02:04;4.25;;;2.10;;
71427;SDS011;59246;59.102;37.928;2022-08-01T03:04:33;3.10;;;2.08;;
71427;SDS011;59246;59.102;37.928;2022-08-01T03:07:02;4.20;;;2.22;;
71427;SDS011;59246;59.102;37.928;2022-08-01T03:09:30;9.85;;;2.13;;
71427;SDS011;59246;59.102;37.928;2022-08-01T03:12:00;11.13;;;2.90;;
71427;SDS011;59246;59.102;37.928;2022-08-01T03:14:28;3.30;;;2.90;;
71427;SDS011;59246;59.102;37.928;2022-08-01T03:16:56;4.13;;;2.30;;
71427;SDS011;59246;59.102;37.928;2022-08-01T03:19:24;2.53;;;2.05;;
71427;SDS011;59246;59.102;37.928;2022-08-01T03:21:51;5.03;;;2.25;;
71427;SDS011;59246;59.102;37.928;2022-08-01T03:24:18;3.70;;;2.22;;
71427;SDS011;59246;59.102;37.928;2022-08-01T03:26:46;6.85;;;2.90;;
71427;SDS011;59246;59.102;37.928;2022-08-01T03:29:15;7.60;;;2.50;;
71427;SDS011;59246;59.102;37.928;2022-08-01T03:31:43;5.50;;;2.85;;
71427;SDS011;59246;59.102;37.928;2022-08-01T03:34:10;7.50;;;2.75;;
71427;SDS011;59246;59.102;37.928;2022-08-01T03:36:43;9.77;;;3.45;;
71427;SDS011;59246;59.102;37.928;2022-08-01T03:39:13;5.88;;;3.65;;
71427;SDS011;59246;59.102;37.928;2022-08-01T03:41:42;6.13;;;3.70;;
71427;SDS011;59246;59.102;37.928;2022-08-01T03:44:15;5.70;;;3.72;;
71427;SDS011;59246;59.102;37.928;2022-08-01T03:46:45;21.00;;;5.28;;
71427;SDS011;59246;59.102;37.928;2022-08-01T03:49:55;11.73;;;4.13;;
71427;SDS011;59246;59.102;37.928;2022-08-01T03:52:06;18.67;;;5.28;;
71427;SDS011;59246;59.102;37.928;2022-08-01T03:54:34;12.20;;;4.22;;
71427;SDS011;59246;59.102;37.928;2022-08-01T03:57:02;14.00;;;4.20;;
71427;SDS011;59246;59.102;37.928;2022-08-01T03:59:30;6.20;;;3.65;;
71427;SDS011;59246;59.102;37.928;2022-08-01T04:01:57;7.70;;;3.10;;
71427;SDS011;59246;59.102;37.928;2022-08-01T04:04:23;8.18;;;3.30;;
71427;SDS011;59246;59.102;37.928;2022-08-01T04:06:49;5.28;;;3.00;;
71427;SDS011;59246;59.102;37.928;2022-08-01T04:09:19;6.15;;;3.25;;
71427;SDS011;59246;59.102;37.928;2022-08-01T04:11:46;6.22;;;3.30;;
71427;SDS011;59246;59.102;37.928;2022-08-01T04:14:13;12.50;;;3.95;;
71427;SDS011;59246;59.102;37.928;2022-08-01T04:16:39;7.22;;;3.50;;
71427;SDS011;59246;59.102;37.928;2022-08-01T04:19:05;16.10;;;3.55;;
71427;SDS011;59246;59.102;37.928;2022-08-01T04:21:34;7.60;;;2.88;;
71427;SDS011;59246;59.102;37.928;2022-08-01T04:24:02;7.00;;;2.70;;
71427;SDS011;59246;59.102;37.928;2022-08-01T04:26:39;5.93;;;2.97;;
71427;SDS011;59246;59.102;37.928;2022-08-01T04:29:08;8.05;;;3.33;;
71427;SDS011;59246;59.102;37.928;2022-08-01T04:31:36;6.78;;;3.03;;
71427;SDS011;59246;59.102;37.928;2022-08-01T04:34:05;8.05;;;3.00;;
71427;SDS011;59246;59.102;37.928;2022-08-01T04:36:32;12.38;;;3.15;;
71427;SDS011;59246;59.102;37.928;2022-08-01T04:39:01;14.57;;;4.43;;
71427;SDS011;59246;59.102;37.928;2022-08-01T04:41:30;17.95;;;4.10;;
71427;SDS011;59246;59.102;37.928;2022-08-01T04:43:57;11.13;;;3.83;;
71427;SDS011;59246;59.102;37.928;2022-08-01T04:46:24;9.35;;;3.65;;
71427;SDS011;59246;59.102;37.928;2022-08-01T04:48:51;8.45;;;3.95;;
71427;SDS011;59246;59.102;37.928;2022-08-01T04:51:20;13.55;;;3.85;;
71427;SDS011;59246;59.102;37.928;2022-08-01T04:53:47;6.28;;;3.67;;
71427;SDS011;59246;59.102;37.928;2022-08-01T04:56:14;7.35;;;3.70;;
71427;SDS011;59246;59.102;37.928;2022-08-01T04:58:40;6.80;;;3.45;;
71427;SDS011;59246;59.102;37.928;2022-08-01T05:01:07;8.10;;;3.22;;
71427;SDS011;59246;59.102;37.928;2022-08-01T05:03:33;10.52;;;3.15;;
71427;SDS011;59246;59.102;37.928;2022-08-01T05:05:59;7.50;;;2.67;;
71427;SDS011;59246;59.102;37.928;2022-08-01T05:08:24;7.07;;;2.38;;
71427;SDS011;59246;59.102;37.928;2022-08-01T05:10:50;2.83;;;1.90;;
71427;SDS011;59246;59.102;37.928;2022-08-01T05:13:16;3.67;;;2.15;;
71427;SDS011;59246;59.102;37.928;2022-08-01T05:15:42;3.85;;;2.22;;
71427;SDS011;59246;59.102;37.928;2022-08-01T05:18:08;4.40;;;2.20;;
71427;SDS011;59246;59.102;37.928;2022-08-01T05:20:33;4.60;;;1.75;;
71427;SDS011;59246;59.102;37.928;2022-08-01T05:23:00;3.97;;;1.58;;
71427;SDS011;59246;59.102;37.928;2022-08-01T05:25:25;4.35;;;1.77;;
71427;SDS011;59246;59.102;37.928;2022-08-01T05:27:51;6.90;;;1.98;;
71427;SDS011;59246;59.102;37.928;2022-08-01T05:30:17;5.55;;;2.05;;
71427;SDS011;59246;59.102;37.928;2022-08-01T05:32:42;4.60;;;2.08;;
71427;SDS011;59246;59.102;37.928;2022-08-01T05:35:09;4.75;;;2.03;;
71427;SDS011;59246;59.102;37.928;2022-08-01T05:37:34;3.28;;;1.58;;
71427;SDS011;59246;59.102;37.928;2022-08-01T05:40:00;4.82;;;2.08;;
71427;SDS011;59246;59.102;37.928;2022-08-01T05:42:26;4.82;;;1.92;;
71427;SDS011;59246;59.102;37.928;2022-08-01T05:44:52;6.40;;;1.77;;
71427;SDS011;59246;59.102;37.928;2022-08-01T05:47:18;6.70;;;2.05;;
71427;SDS011;59246;59.102;37.928;2022-08-01T05:49:44;6.82;;;1.95;;
71427;SDS011;59246;59.102;37.928;2022-08-01T05:52:10;3.42;;;1.70;;
71427;SDS011;59246;59.102;37.928;2022-08-01T05:54:36;4.25;;;2.30;;
71427;SDS011;59246;59.102;37.928;2022-08-01T05:57:02;8.52;;;2.30;;
71427;SDS011;59246;59.102;37.928;2022-08-01T05:59:28;4.45;;;1.92;;
71427;SDS011;59246;59.102;37.928;2022-08-01T06:01:54;5.05;;;2.05;;
71427;SDS011;59246;59.102;37.928;2022-08-01T06:04:20;4.35;;;2.05;;
71427;SDS011;59246;59.102;37.928;2022-08-01T06:06:46;4.97;;;2.05;;
71427;SDS011;59246;59.102;37.928;2022-08-01T06:09:12;8.27;;;2.50;;
71427;SDS011;59246;59.102;37.928;2022-08-01T06:11:38;11.40;;;2.92;;
71427;SDS011;59246;59.102;37.928;2022-08-01T06:14:04;8.18;;;3.00;;
71427;SDS011;59246;59.102;37.928;2022-08-01T06:16:30;6.13;;;2.75;;
71427;SDS011;59246;59.102;37.928;2022-08-01T06:18:56;7.20;;;2.45;;
71427;SDS011;59246;59.102;37.928;2022-08-01T06:21:22;7.93;;;2.65;;
71427;SDS011;59246;59.102;37.928;2022-08-01T06:23:48;7.50;;;2.58;;
71427;SDS011;59246;59.102;37.928;2022-08-01T06:26:13;6.95;;;3.63;;
71427;SDS011;59246;59.102;37.928;2022-08-01T06:28:43;3.92;;;2.40;;
71427;SDS011;59246;59.102;37.928;2022-08-01T06:31:08;8.07;;;3.22;;
71427;SDS011;59246;59.102;37.928;2022-08-01T06:33:36;9.02;;;2.30;;
71427;SDS011;59246;59.102;37.928;2022-08-01T06:36:02;6.18;;;2.55;;
71427;SDS011;59246;59.102;37.928;2022-08-01T06:38:28;4.43;;;2.33;;
71427;SDS011;59246;59.102;37.928;2022-08-01T06:40:54;6.00;;;2.70;;
71427;SDS011;59246;59.102;37.928;2022-08-01T06:43:20;6.43;;;2.88;;
71427;SDS011;59246;59.102;37.928;2022-08-01T06:45:46;7.47;;;2.72;;
71427;SDS011;59246;59.102;37.928;2022-08-01T06:48:12;6.50;;;2.40;;
71427;SDS011;59246;59.102;37.928;2022-08-01T06:50:38;7.82;;;2.90;;
71427;SDS011;59246;59.102;37.928;2022-08-01T06:53:04;2.63;;;1.90;;
71427;SDS011;59246;59.102;37.928;2022-08-01T06:55:30;6.32;;;2.30;;
71427;SDS011;59246;59.102;37.928;2022-08-01T06:57:56;9.48;;;3.22;;
71427;SDS011;59246;59.102;37.928;2022-08-01T07:00:22;9.75;;;2.03;;
71427;SDS011;59246;59.102;37.928;2022-08-01T07:02:49;5.60;;;1.67;;
71427;SDS011;59246;59.102;37.928;2022-08-01T07:05:17;1.63;;;1.13;;
71427;SDS011;59246;59.102;37.928;2022-08-01T07:07:42;5.13;;;1.10;;
71427;SDS011;59246;59.102;37.928;2022-08-01T07:10:09;2.83;;;1.10;;
71427;SDS011;59246;59.102;37.928;2022-08-01T07:12:35;4.63;;;1.42;;
71427;SDS011;59246;59.102;37.928;2022-08-01T07:15:09;4.63;;;1.35;;
71427;SDS011;59246;59.102;37.928;2022-08-01T07:17:36;1.95;;;0.60;;
71427;SDS011;59246;59.102;37.928;2022-08-01T07:20:03;0.73;;;0.73;;
71427;SDS011;59246;59.102;37.928;2022-08-01T07:22:29;8.07;;;0.57;;
71427;SDS011;59246;59.102;37.928;2022-08-01T07:24:55;10.50;;;2.03;;
71427;SDS011;59246;59.102;37.928;2022-08-01T07:27:21;2.58;;;0.80;;
71427;SDS011;59246;59.102;37.928;2022-08-01T07:29:47;1.25;;;0.60;;
71427;SDS011;59246;59.102;37.928;2022-08-01T07:32:13;1.27;;;0.90;;
71427;SDS011;59246;59.102;37.928;2022-08-01T07:34:38;2.85;;;1.42;;
71427;SDS011;59246;59.102;37.928;2022-08-01T07:37:04;3.45;;;1.48;;
71427;SDS011;59246;59.102;37.928;2022-08-01T07:39:30;4.15;;;1.48;;
71427;SDS011;59246;59.102;37.928;2022-08-01T07:41:56;2.85;;;1.48;;
71427;SDS011;59246;59.102;37.928;2022-08-01T07:44:22;7.47;;;1.23;;
71427;SDS011;59246;59.102;37.928;2022-08-01T07:46:48;3.22;;;1.30;;
71427;SDS011;59246;59.102;37.928;2022-08-01T07:49:14;2.90;;;1.00;;
71427;SDS011;59246;59.102;37.928;2022-08-01T07:51:40;9.18;;;1.02;;
71427;SDS011;59246;59.102;37.928;2022-08-01T07:54:05;0.77;;;0.73;;
71427;SDS011;59246;59.102;37.928;2022-08-01T07:56:32;3.42;;;0.85;;
71427;SDS011;59246;59.102;37.928;2022-08-01T07:58:58;0.77;;;0.50;;
71427;SDS011;59246;59.102;37.928;2022-08-01T08:01:24;2.58;;;0.95;;
71427;SDS011;59246;59.102;37.928;2022-08-01T08:03:50;0.73;;;0.47;;
71427;SDS011;59246;59.102;37.928;2022-08-01T08:06:15;0.93;;;0.90;;
71427;SDS011;59246;59.102;37.928;2022-08-01T08:08:41;2.13;;;0.60;;
71427;SDS011;59246;59.102;37.928;2022-08-01T08:11:07;3.63;;;0.60;;
71427;SDS011;59246;59.102;37.928;2022-08-01T08:13:33;2.03;;;0.73;;
71427;SDS011;59246;59.102;37.928;2022-08-01T08:15:59;1.00;;;0.50;;
71427;SDS011;59246;59.102;37.928;2022-08-01T08:18:25;2.30;;;0.70;;
71427;SDS011;59246;59.102;37.928;2022-08-01T08:20:51;0.70;;;0.70;;
71427;SDS011;59246;59.102;37.928;2022-08-01T08:23:16;7.43;;;1.17;;
71427;SDS011;59246;59.102;37.928;2022-08-01T08:26:00;0.70;;;0.60;;
71427;SDS011;59246;59.102;37.928;2022-08-01T08:28:27;2.50;;;0.60;;
71427;SDS011;59246;59.102;37.928;2022-08-01T08:30:53;4.57;;;0.75;;
71427;SDS011;59246;59.102;37.928;2022-08-01T08:33:20;4.60;;;1.08;;
71427;SDS011;59246;59.102;37.928;2022-08-01T08:35:46;2.10;;;0.80;;
71427;SDS011;59246;59.102;37.928;2022-08-01T08:38:12;4.60;;;0.80;;
71427;SDS011;59246;59.102;37.928;2022-08-01T08:40:38;2.78;;;0.80;;
71427;SDS011;59246;59.102;37.928;2022-08-01T08:43:04;1.55;;;0.68;;
71427;SDS011;59246;59.102;37.928;2022-08-01T08:45:31;9.40;;;1.42;;
71427;SDS011;59246;59.102;37.928;2022-08-01T08:47:57;3.67;;;0.80;;
71427;SDS011;59246;59.102;37.928;2022-08-01T08:50:25;4.53;;;1.00;;
71427;SDS011;59246;59.102;37.928;2022-08-01T08:52:53;7.63;;;1.00;;
71427;SDS011;59246;59.102;37.928;2022-08-01T08:55:20;1.45;;;0.50;;
71427;SDS011;59246;59.102;37.928;2022-08-01T08:57:47;1.65;;;0.60;;
71427;SDS011;59246;59.102;37.928;2022-08-01T09:00:13;1.30;;;0.60;;
71427;SDS011;59246;59.102;37.928;2022-08-01T09:02:54;1.02;;;0.85;;
71427;SDS011;59246;59.102;37.928;2022-08-01T09:05:22;1.38;;;0.60;;
71427;SDS011;59246;59.102;37.928;2022-08-01T09:07:51;3.10;;;0.77;;
71427;SDS011;59246;59.102;37.928;2022-08-01T09:10:17;0.68;;;0.40;;
71427;SDS011;59246;59.102;37.928;2022-08-01T09:18:04;0.82;;;0.57;;
71427;SDS011;59246;59.102;37.928;2022-08-01T09:20:30;0.65;;;0.50;;
71427;SDS011;59246;59.102;37.928;2022-08-01T09:23:00;1.10;;;0.80;;
71427;SDS011;59246;59.102;37.928;2022-08-01T09:25:26;1.25;;;0.70;;
71427;SDS011;59246;59.102;37.928;2022-08-01T09:28:04;0.50;;;0.50;;
71427;SDS011;59246;59.102;37.928;2022-08-01T09:30:38;0.80;;;0.50;;
71427;SDS011;59246;59.102;37.928;2022-08-01T09:33:04;0.40;;;0.40;;
71427;SDS011;59246;59.102;37.928;2022-08-01T09:35:31;0.60;;;0.60;;
71427;SDS011;59246;59.102;37.928;2022-08-01T09:38:19;2.90;;;0.60;;
71427;SDS011;59246;59.102;37.928;2022-08-01T09:40:51;0.50;;;0.50;;
71427;SDS011;59246;59.102;37.928;2022-08-01T09:43:27;0.68;;;0.40;;
71427;SDS011;59246;59.102;37.928;2022-08-01T09:45:54;0.75;;;0.73;;
71427;SDS011;59246;59.102;37.928;2022-08-01T09:48:21;0.70;;;0.63;;
71427;SDS011;59246;59.102;37.928;2022-08-01T09:50:51;0.80;;;0.50;;
71427;SDS011;59246;59.102;37.928;2022-08-01T09:53:17;1.92;;;0.70;;
71427;SDS011;59246;59.102;37.928;2022-08-01T09:55:44;0.88;;;0.60;;
71427;SDS011;59246;59.102;37.928;2022-08-01T09:58:10;0.98;;;0.75;;
71427;SDS011;59246;59.102;37.928;2022-08-01T10:00:37;3.25;;;0.77;;
71427;SDS011;59246;59.102;37.928;2022-08-01T10:03:19;1.13;;;0.63;;
71427;SDS011;59246;59.102;37.928;2022-08-01T10:05:47;1.08;;;0.63;;
71427;SDS011;59246;59.102;37.928;2022-08-01T10:08:14;0.60;;;0.60;;
71427;SDS011;59246;59.102;37.928;2022-08-01T10:10:39;1.25;;;0.70;;
71427;SDS011;59246;59.102;37.928;2022-08-01T10:13:05;0.73;;;0.73;;
71427;SDS011;59246;59.102;37.928;2022-08-01T10:15:32;4.10;;;0.68;;
71427;SDS011;59246;59.102;37.928;2022-08-01T10:18:00;5.65;;;0.63;;
71427;SDS011;59246;59.102;37.928;2022-08-01T10:20:32;1.73;;;0.70;;
71427;SDS011;59246;59.102;37.928;2022-08-01T10:23:02;1.50;;;0.95;;
71427;SDS011;59246;59.102;37.928;2022-08-01T10:25:30;1.15;;;0.70;;
71427;SDS011;59246;59.102;37.928;2022-08-01T10:27:59;0.77;;;0.50;;
71427;SDS011;59246;59.102;37.928;2022-08-01T10:30:31;1.08;;;0.52;;
71427;SDS011;59246;59.102;37.928;2022-08-01T10:32:57;0.82;;;0.60;;
71427;SDS011;59246;59.102;37.928;2022-08-01T10:35:23;1.73;;;0.40;;
71427;SDS011;59246;59.102;37.928;2022-08-01T10:37:49;2.92;;;0.55;;
71427;SDS011;59246;59.102;37.928;2022-08-01T10:40:21;0.65;;;0.52;;
71427;SDS011;59246;59.102;37.928;2022-08-01T10:42:47;0.52;;;0.45;;
71427;SDS011;59246;59.102;37.928;2022-08-01T10:45:14;2.25;;;0.60;;
71427;SDS011;59246;59.102;37.928;2022-08-01T10:50:32;4.45;;;0.73;;
71427;SDS011;59246;59.102;37.928;2022-08-01T10:53:18;2.22;;;0.70;;
71427;SDS011;59246;59.102;37.928;2022-08-01T10:55:47;2.80;;;0.60;;
71427;SDS011;59246;59.102;37.928;2022-08-01T10:58:23;1.80;;;0.70;;
71427;SDS011;59246;59.102;37.928;2022-08-01T11:01:16;2.03;;;0.82;;
71427;SDS011;59246;59.102;37.928;2022-08-01T11:03:55;3.92;;;1.13;;
71427;SDS011;59246;59.102;37.928;2022-08-01T11:14:34;0.70;;;0.60;;
71427;SDS011;59246;59.102;37.928;2022-08-01T11:17:33;1.25;;;1.02;;
71427;SDS011;59246;59.102;37.928;2022-08-01T11:25:27;1.35;;;0.50;;
71427;SDS011;59246;59.102;37.928;2022-08-01T11:30:42;0.73;;;0.60;;
71427;SDS011;59246;59.102;37.928;2022-08-01T11:33:09;0.55;;;0.50;;
71427;SDS011;59246;59.102;37.928;2022-08-01T11:35:36;2.35;;;0.70;;
71427;SDS011;59246;59.102;37.928;2022-08-01T11:41:09;0.65;;;0.65;;
71427;SDS011;59246;59.102;37.928;2022-08-01T11:43:56;9.93;;;4.53;;
71427;SDS011;59246;59.102;37.928;2022-08-01T11:46:49;2.35;;;0.60;;
71427;SDS011;59246;59.102;37.928;2022-08-01T11:49:24;0.82;;;0.68;;
71427;SDS011;59246;59.102;37.928;2022-08-01T11:52:13;3.20;;;0.60;;
71427;SDS011;59246;59.102;37.928;2022-08-01T11:54:49;10.27;;;0.80;;
71427;SDS011;59246;59.102;37.928;2022-08-01T11:57:22;1.33;;;0.80;;
71427;SDS011;59246;59.102;37.928;2022-08-01T11:59:55;7.22;;;0.77;;
71427;SDS011;59246;59.102;37.928;2022-08-01T12:02:24;2.42;;;0.52;;
71427;SDS011;59246;59.102;37.928;2022-08-01T12:04:58;2.03;;;0.57;;
71427;SDS011;59246;59.102;37.928;2022-08-01T12:07:35;6.00;;;0.80;;
71427;SDS011;59246;59.102;37.928;2022-08-01T12:10:05;3.00;;;0.65;;
71427;SDS011;59246;59.102;37.928;2022-08-01T12:15:06;1.65;;;0.70;;
71427;SDS011;59246;59.102;37.928;2022-08-01T12:17:39;1.25;;;0.70;;
71427;SDS011;59246;59.102;37.928;2022-08-01T12:20:07;2.92;;;0.93;;
71427;SDS011;59246;59.102;37.928;2022-08-01T12:22:35;2.22;;;0.68;;
71427;SDS011;59246;59.102;37.928;2022-08-01T12:25:05;3.45;;;0.70;;
71427;SDS011;59246;59.102;37.928;2022-08-01T12:27:31;0.63;;;0.43;;
71427;SDS011;59246;59.102;37.928;2022-08-01T12:29:57;1.75;;;0.35;;
71427;SDS011;59246;59.102;37.928;2022-08-01T12:32:25;1.08;;;0.60;;
71427;SDS011;59246;59.102;37.928;2022-08-01T12:34:56;3.70;;;0.50;;
71427;SDS011;59246;59.102;37.928;2022-08-01T12:37:26;0.60;;;0.60;;
71427;SDS011;59246;59.102;37.928;2022-08-01T12:39:52;2.10;;;0.50;;
71427;SDS011;59246;59.102;37.928;2022-08-01T12:42:18;5.10;;;0.98;;
71427;SDS011;59246;59.102;37.928;2022-08-01T12:44:47;0.93;;;0.68;;
71427;SDS011;59246;59.102;37.928;2022-08-01T12:47:16;1.23;;;1.13;;
71427;SDS011;59246;59.102;37.928;2022-08-01T12:49:43;2.05;;;0.65;;
71427;SDS011;59246;59.102;37.928;2022-08-01T12:52:11;1.95;;;0.60;;
71427;SDS011;59246;59.102;37.928;2022-08-01T12:57:27;1.33;;;0.75;;
71427;SDS011;59246;59.102;37.928;2022-08-01T12:59:53;1.90;;;0.52;;
71427;SDS011;59246;59.102;37.928;2022-08-01T13:02:19;1.08;;;0.80;;
71427;SDS011;59246;59.102;37.928;2022-08-01T13:04:51;1.50;;;0.68;;
71427;SDS011;59246;59.102;37.928;2022-08-01T13:07:17;1.73;;;0.60;;
71427;SDS011;59246;59.102;37.928;2022-08-01T13:09:50;2.00;;;0.60;;
71427;SDS011;59246;59.102;37.928;2022-08-01T13:12:16;3.15;;;0.90;;
71427;SDS011;59246;59.102;37.928;2022-08-01T13:14:42;4.07;;;0.70;;
71427;SDS011;59246;59.102;37.928;2022-08-01T13:17:08;1.98;;;0.80;;
71427;SDS011;59246;59.102;37.928;2022-08-01T13:19:43;1.58;;;0.65;;
71427;SDS011;59246;59.102;37.928;2022-08-01T13:22:12;2.95;;;0.63;;
71427;SDS011;59246;59.102;37.928;2022-08-01T13:24:38;0.60;;;0.50;;
71427;SDS011;59246;59.102;37.928;2022-08-01T13:27:04;1.98;;;1.00;;
71427;SDS011;59246;59.102;37.928;2022-08-01T13:29:34;0.60;;;0.60;;
71427;SDS011;59246;59.102;37.928;2022-08-01T13:34:44;0.52;;;0.52;;
71427;SDS011;59246;59.102;37.928;2022-08-01T13:37:10;2.15;;;1.20;;
71427;SDS011;59246;59.102;37.928;2022-08-01T13:39:36;2.25;;;0.60;;
71427;SDS011;59246;59.102;37.928;2022-08-01T13:42:18;1.35;;;0.60;;
71427;SDS011;59246;59.102;37.928;2022-08-01T13:44:44;3.30;;;0.55;;
71427;SDS011;59246;59.102;37.928;2022-08-01T13:47:10;0.63;;;0.60;;
71427;SDS011;59246;59.102;37.928;2022-08-01T13:49:36;5.22;;;0.70;;
71427;SDS011;59246;59.102;37.928;2022-08-01T13:52:02;5.88;;;0.90;;
71427;SDS011;59246;59.102;37.928;2022-08-01T13:54:31;3.00;;;0.80;;
71427;SDS011;59246;59.102;37.928;2022-08-01T13:56:57;2.25;;;0.50;;
71427;SDS011;59246;59.102;37.928;2022-08-01T13:59:23;2.13;;;0.80;;
71427;SDS011;59246;59.102;37.928;2022-08-01T14:01:49;4.43;;;1.02;;
71427;SDS011;59246;59.102;37.928;2022-08-01T14:04:15;2.42;;;0.90;;
71427;SDS011;59246;59.102;37.928;2022-08-01T14:06:41;5.90;;;0.60;;
71427;SDS011;59246;59.102;37.928;2022-08-01T14:09:06;2.85;;;0.60;;
71427;SDS011;59246;59.102;37.928;2022-08-01T14:11:32;2.45;;;0.60;;
71427;SDS011;59246;59.102;37.928;2022-08-01T14:13:59;0.52;;;0.47;;
71427;SDS011;59246;59.102;37.928;2022-08-01T14:16:25;2.80;;;0.80;;
71427;SDS011;59246;59.102;37.928;2022-08-01T14:18:51;2.88;;;0.68;;
71427;SDS011;59246;59.102;37.928;2022-08-01T14:21:17;3.88;;;1.50;;
71427;SDS011;59246;59.102;37.928;2022-08-01T14:23:44;2.92;;;0.65;;
71427;SDS011;59246;59.102;37.928;2022-08-01T14:26:10;6.25;;;1.02;;
71427;SDS011;59246;59.102;37.928;2022-08-01T14:28:36;3.40;;;1.02;;
71427;SDS011;59246;59.102;37.928;2022-08-01T14:31:02;5.55;;;0.75;;
71427;SDS011;59246;59.102;37.928;2022-08-01T14:33:28;2.25;;;1.05;;
71427;SDS011;59246;59.102;37.928;2022-08-01T14:35:56;1.30;;;0.52;;
71427;SDS011;59246;59.102;37.928;2022-08-01T14:38:22;1.52;;;0.82;;
71427;SDS011;59246;59.102;37.928;2022-08-01T14:40:47;4.03;;;0.70;;
71427;SDS011;59246;59.102;37.928;2022-08-01T14:43:19;6.88;;;0.60;;
71427;SDS011;59246;59.102;37.928;2022-08-01T14:45:46;1.27;;;0.63;;
71427;SDS011;59246;59.102;37.928;2022-08-01T14:48:16;1.77;;;0.60;;
71427;SDS011;59246;59.102;37.928;2022-08-01T14:50:42;1.20;;;0.50;;
71427;SDS011;59246;59.102;37.928;2022-08-01T14:53:08;4.55;;;0.55;;
71427;SDS011;59246;59.102;37.928;2022-08-01T14:55:34;3.63;;;0.70;;
71427;SDS011;59246;59.102;37.928;2022-08-01T14:58:00;3.67;;;1.00;;
71427;SDS011;59246;59.102;37.928;2022-08-01T15:00:25;2.65;;;0.60;;
71427;SDS011;59246;59.102;37.928;2022-08-01T15:02:51;4.20;;;1.08;;
71427;SDS011;59246;59.102;37.928;2022-08-01T15:05:17;3.28;;;0.57;;
71427;SDS011;59246;59.102;37.928;2022-08-01T15:07:42;3.80;;;0.60;;
71427;SDS011;59246;59.102;37.928;2022-08-01T15:10:08;2.75;;;0.40;;
71427;SDS011;59246;59.102;37.928;2022-08-01T15:12:34;2.78;;;0.88;;
71427;SDS011;59246;59.102;37.928;2022-08-01T15:15:00;5.68;;;0.60;;
71427;SDS011;59246;59.102;37.928;2022-08-01T15:17:26;3.58;;;0.52;;
71427;SDS011;59246;59.102;37.928;2022-08-01T15:19:58;2.08;;;0.50;;
71427;SDS011;59246;59.102;37.928;2022-08-01T15:22:26;1.30;;;0.82;;
71427;SDS011;59246;59.102;37.928;2022-08-01T15:24:53;1.00;;;0.50;;
71427;SDS011;59246;59.102;37.928;2022-08-01T15:27:20;0.75;;;0.70;;
71427;SDS011;59246;59.102;37.928;2022-08-01T15:29:46;0.75;;;0.65;;
71427;SDS011;59246;59.102;37.928;2022-08-01T15:32:12;3.47;;;0.70;;
71427;SDS011;59246;59.102;37.928;2022-08-01T15:34:39;2.17;;;0.60;;